sensor_id;sensor_type;location;lat;lon;timestamp;P1;durP1;ratioP1;P2;durP2;ratioP2
27670;SDS011;15077;49.704;9.908;2023-03-04T00:01:50;8.45;;;4.15;;
27670;SDS011;15077;49.704;9.908;2023-03-04T00:04:16;6.55;;;3.47;;
27670;SDS011;15077;49.704;9.908;2023-03-04T00:06:42;6.75;;;3.38;;
27670;SDS011;15077;49.704;9.908;2023-03-04T00:09:08;7.55;;;3.33;;
27670;SDS011;15077;49.704;9.908;2023-03-04T00:11:34;6.70;;;3.00;;
27670;SDS011;15077;49.704;9.908;2023-03-04T00:13:59;5.78;;;3.13;;
27670;SDS011;15077;49.704;9.908;2023-03-04T00:16:25;9.05;;;3.47;;
27670;SDS011;15077;49.704;9.908;2023-03-04T00:18:51;6.75;;;3.53;;
27670;SDS011;15077;49.704;9.908;2023-03-04T00:21:18;6.45;;;3.28;;
27670;SDS011;15077;49.704;9.908;2023-03-04T00:23:44;8.02;;;3.90;;
27670;SDS011;15077;49.704;9.908;2023-03-04T00:26:10;7.03;;;3.28;;
27670;SDS011;15077;49.704;9.908;2023-03-04T00:28:37;5.78;;;2.97;;
27670;SDS011;15077;49.704;9.908;2023-03-04T00:31:04;7.53;;;3.67;;
27670;SDS011;15077;49.704;9.908;2023-03-04T00:33:34;6.90;;;3.88;;
27670;SDS011;15077;49.704;9.908;2023-03-04T00:36:01;6.88;;;3.53;;
27670;SDS011;15077;49.704;9.908;2023-03-04T00:38:28;6.65;;;3.42;;
27670;SDS011;15077;49.704;9.908;2023-03-04T00:40:54;7.00;;;3.58;;
27670;SDS011;15077;49.704;9.908;2023-03-04T00:43:20;7.25;;;2.97;;
27670;SDS011;15077;49.704;9.908;2023-03-04T00:45:46;5.38;;;2.55;;
27670;SDS011;15077;49.704;9.908;2023-03-04T00:48:13;8.70;;;3.70;;
27670;SDS011;15077;49.704;9.908;2023-03-04T00:50:40;8.18;;;3.53;;
27670;SDS011;15077;49.704;9.908;2023-03-04T00:53:07;7.63;;;3.58;;
27670;SDS011;15077;49.704;9.908;2023-03-04T00:55:33;6.40;;;3.33;;
27670;SDS011;15077;49.704;9.908;2023-03-04T00:57:58;7.40;;;3.65;;
27670;SDS011;15077;49.704;9.908;2023-03-04T01:00:24;6.75;;;3.53;;
27670;SDS011;15077;49.704;9.908;2023-03-04T01:02:50;7.68;;;3.97;;
27670;SDS011;15077;49.704;9.908;2023-03-04T01:05:16;7.22;;;2.90;;
27670;SDS011;15077;49.704;9.908;2023-03-04T01:07:43;8.18;;;4.03;;
27670;SDS011;15077;49.704;9.908;2023-03-04T01:10:10;7.63;;;3.80;;
27670;SDS011;15077;49.704;9.908;2023-03-04T01:12:38;8.10;;;3.30;;
27670;SDS011;15077;49.704;9.908;2023-03-04T01:15:06;7.85;;;4.53;;
27670;SDS011;15077;49.704;9.908;2023-03-04T01:17:36;6.55;;;3.83;;
27670;SDS011;15077;49.704;9.908;2023-03-04T01:20:02;8.75;;;3.88;;
27670;SDS011;15077;49.704;9.908;2023-03-04T01:22:31;7.30;;;4.45;;
27670;SDS011;15077;49.704;9.908;2023-03-04T01:24:57;11.20;;;4.57;;
27670;SDS011;15077;49.704;9.908;2023-03-04T01:27:23;9.68;;;4.53;;
27670;SDS011;15077;49.704;9.908;2023-03-04T01:29:51;6.60;;;3.67;;
27670;SDS011;15077;49.704;9.908;2023-03-04T01:32:17;8.30;;;3.83;;
27670;SDS011;15077;49.704;9.908;2023-03-04T01:34:43;6.85;;;4.35;;
27670;SDS011;15077;49.704;9.908;2023-03-04T01:37:09;8.23;;;4.60;;
27670;SDS011;15077;49.704;9.908;2023-03-04T01:39:37;9.52;;;4.45;;
27670;SDS011;15077;49.704;9.908;2023-03-04T01:42:04;8.05;;;4.30;;
27670;SDS011;15077;49.704;9.908;2023-03-04T01:44:30;9.10;;;4.57;;
27670;SDS011;15077;49.704;9.908;2023-03-04T01:46:59;9.35;;;4.47;;
27670;SDS011;15077;49.704;9.908;2023-03-04T01:49:24;8.32;;;4.43;;
27670;SDS011;15077;49.704;9.908;2023-03-04T01:51:52;9.35;;;4.43;;
27670;SDS011;15077;49.704;9.908;2023-03-04T01:54:19;8.02;;;4.00;;
27670;SDS011;15077;49.704;9.908;2023-03-04T01:56:47;6.43;;;3.70;;
27670;SDS011;15077;49.704;9.908;2023-03-04T01:59:19;7.78;;;4.05;;
27670;SDS011;15077;49.704;9.908;2023-03-04T02:01:48;12.02;;;5.38;;
27670;SDS011;15077;49.704;9.908;2023-03-04T02:04:24;9.63;;;4.85;;
27670;SDS011;15077;49.704;9.908;2023-03-04T02:06:56;8.88;;;4.75;;
27670;SDS011;15077;49.704;9.908;2023-03-04T02:09:25;8.55;;;4.65;;
27670;SDS011;15077;49.704;9.908;2023-03-04T02:11:54;8.13;;;3.92;;
27670;SDS011;15077;49.704;9.908;2023-03-04T02:14:20;10.30;;;4.82;;
27670;SDS011;15077;49.704;9.908;2023-03-04T02:16:48;9.85;;;5.07;;
27670;SDS011;15077;49.704;9.908;2023-03-04T02:22:20;11.27;;;5.78;;
27670;SDS011;15077;49.704;9.908;2023-03-04T02:24:48;14.40;;;6.93;;
27670;SDS011;15077;49.704;9.908;2023-03-04T02:27:21;10.32;;;5.55;;
27670;SDS011;15077;49.704;9.908;2023-03-04T02:29:47;12.27;;;6.38;;
27670;SDS011;15077;49.704;9.908;2023-03-04T02:32:14;11.25;;;6.50;;
27670;SDS011;15077;49.704;9.908;2023-03-04T02:34:46;14.13;;;8.05;;
27670;SDS011;15077;49.704;9.908;2023-03-04T02:37:14;11.98;;;6.55;;
27670;SDS011;15077;49.704;9.908;2023-03-04T02:39:45;14.82;;;8.30;;
27670;SDS011;15077;49.704;9.908;2023-03-04T02:42:13;17.98;;;7.57;;
27670;SDS011;15077;49.704;9.908;2023-03-04T02:44:42;12.63;;;7.15;;
27670;SDS011;15077;49.704;9.908;2023-03-04T02:47:16;14.93;;;7.97;;
27670;SDS011;15077;49.704;9.908;2023-03-04T02:49:44;11.55;;;7.32;;
27670;SDS011;15077;49.704;9.908;2023-03-04T02:52:29;10.85;;;5.88;;
27670;SDS011;15077;49.704;9.908;2023-03-04T02:54:56;11.43;;;6.43;;
27670;SDS011;15077;49.704;9.908;2023-03-04T02:57:23;11.25;;;6.28;;
27670;SDS011;15077;49.704;9.908;2023-03-04T02:59:49;11.93;;;6.47;;
27670;SDS011;15077;49.704;9.908;2023-03-04T03:02:15;13.50;;;6.82;;
27670;SDS011;15077;49.704;9.908;2023-03-04T03:04:43;12.52;;;6.43;;
27670;SDS011;15077;49.704;9.908;2023-03-04T03:07:09;12.57;;;7.10;;
27670;SDS011;15077;49.704;9.908;2023-03-04T03:09:34;12.38;;;6.53;;
27670;SDS011;15077;49.704;9.908;2023-03-04T03:12:01;13.30;;;6.70;;
27670;SDS011;15077;49.704;9.908;2023-03-04T03:14:28;10.32;;;5.65;;
27670;SDS011;15077;49.704;9.908;2023-03-04T03:16:55;12.65;;;7.20;;
27670;SDS011;15077;49.704;9.908;2023-03-04T03:19:21;11.70;;;5.95;;
27670;SDS011;15077;49.704;9.908;2023-03-04T03:21:46;11.30;;;5.72;;
27670;SDS011;15077;49.704;9.908;2023-03-04T03:24:14;10.60;;;6.15;;
27670;SDS011;15077;49.704;9.908;2023-03-04T03:26:42;11.13;;;5.93;;
27670;SDS011;15077;49.704;9.908;2023-03-04T03:29:09;14.45;;;7.50;;
27670;SDS011;15077;49.704;9.908;2023-03-04T03:31:35;14.32;;;7.57;;
27670;SDS011;15077;49.704;9.908;2023-03-04T03:34:02;9.75;;;6.40;;
27670;SDS011;15077;49.704;9.908;2023-03-04T03:36:27;8.80;;;5.57;;
27670;SDS011;15077;49.704;9.908;2023-03-04T03:38:53;9.70;;;5.15;;
27670;SDS011;15077;49.704;9.908;2023-03-04T03:41:19;9.32;;;4.70;;
27670;SDS011;15077;49.704;9.908;2023-03-04T03:43:46;8.75;;;4.57;;
27670;SDS011;15077;49.704;9.908;2023-03-04T03:46:13;8.10;;;4.72;;
27670;SDS011;15077;49.704;9.908;2023-03-04T03:48:41;10.45;;;5.85;;
27670;SDS011;15077;49.704;9.908;2023-03-04T03:51:08;9.95;;;6.40;;
27670;SDS011;15077;49.704;9.908;2023-03-04T03:53:35;8.85;;;5.47;;
27670;SDS011;15077;49.704;9.908;2023-03-04T03:56:03;8.52;;;5.38;;
27670;SDS011;15077;49.704;9.908;2023-03-04T03:58:29;9.50;;;5.38;;
27670;SDS011;15077;49.704;9.908;2023-03-04T04:00:55;9.13;;;5.05;;
27670;SDS011;15077;49.704;9.908;2023-03-04T04:03:20;10.75;;;6.45;;
27670;SDS011;15077;49.704;9.908;2023-03-04T04:05:47;10.77;;;6.45;;
27670;SDS011;15077;49.704;9.908;2023-03-04T04:08:14;9.85;;;6.72;;
27670;SDS011;15077;49.704;9.908;2023-03-04T04:10:41;11.55;;;5.75;;
27670;SDS011;15077;49.704;9.908;2023-03-04T04:13:09;10.88;;;6.10;;
27670;SDS011;15077;49.704;9.908;2023-03-04T04:15:35;8.70;;;4.93;;
27670;SDS011;15077;49.704;9.908;2023-03-04T04:18:03;10.85;;;5.90;;
27670;SDS011;15077;49.704;9.908;2023-03-04T04:20:32;10.98;;;6.10;;
27670;SDS011;15077;49.704;9.908;2023-03-04T04:23:00;14.82;;;8.07;;
27670;SDS011;15077;49.704;9.908;2023-03-04T04:25:28;10.27;;;6.40;;
27670;SDS011;15077;49.704;9.908;2023-03-04T04:27:55;13.70;;;7.50;;
27670;SDS011;15077;49.704;9.908;2023-03-04T04:30:21;13.32;;;6.43;;
27670;SDS011;15077;49.704;9.908;2023-03-04T04:32:47;13.35;;;7.43;;
27670;SDS011;15077;49.704;9.908;2023-03-04T04:35:15;15.13;;;9.00;;
27670;SDS011;15077;49.704;9.908;2023-03-04T04:37:43;16.30;;;9.93;;
27670;SDS011;15077;49.704;9.908;2023-03-04T04:40:14;14.00;;;7.05;;
27670;SDS011;15077;49.704;9.908;2023-03-04T04:42:41;14.23;;;8.38;;
27670;SDS011;15077;49.704;9.908;2023-03-04T04:45:10;17.88;;;10.15;;
27670;SDS011;15077;49.704;9.908;2023-03-04T04:47:36;16.48;;;9.18;;
27670;SDS011;15077;49.704;9.908;2023-03-04T04:50:02;11.88;;;7.13;;
27670;SDS011;15077;49.704;9.908;2023-03-04T04:52:29;14.48;;;8.43;;
27670;SDS011;15077;49.704;9.908;2023-03-04T04:54:55;15.50;;;9.20;;
27670;SDS011;15077;49.704;9.908;2023-03-04T04:57:21;13.38;;;8.30;;
27670;SDS011;15077;49.704;9.908;2023-03-04T04:59:47;14.15;;;7.35;;
27670;SDS011;15077;49.704;9.908;2023-03-04T05:02:15;12.25;;;7.13;;
27670;SDS011;15077;49.704;9.908;2023-03-04T05:04:41;17.38;;;9.27;;
27670;SDS011;15077;49.704;9.908;2023-03-04T05:07:07;14.13;;;9.15;;
27670;SDS011;15077;49.704;9.908;2023-03-04T05:09:33;19.30;;;9.82;;
27670;SDS011;15077;49.704;9.908;2023-03-04T05:11:59;22.48;;;10.95;;
27670;SDS011;15077;49.704;9.908;2023-03-04T05:14:24;16.77;;;9.65;;
27670;SDS011;15077;49.704;9.908;2023-03-04T05:16:50;18.10;;;10.07;;
27670;SDS011;15077;49.704;9.908;2023-03-04T05:19:17;20.13;;;11.82;;
27670;SDS011;15077;49.704;9.908;2023-03-04T05:21:44;17.42;;;10.38;;
27670;SDS011;15077;49.704;9.908;2023-03-04T05:24:09;16.02;;;9.10;;
27670;SDS011;15077;49.704;9.908;2023-03-04T05:26:35;17.88;;;10.57;;
27670;SDS011;15077;49.704;9.908;2023-03-04T05:29:01;14.27;;;8.18;;
27670;SDS011;15077;49.704;9.908;2023-03-04T05:31:28;16.55;;;9.52;;
27670;SDS011;15077;49.704;9.908;2023-03-04T05:33:54;14.43;;;7.40;;
27670;SDS011;15077;49.704;9.908;2023-03-04T05:36:19;12.35;;;7.18;;
27670;SDS011;15077;49.704;9.908;2023-03-04T05:38:45;14.13;;;6.80;;
27670;SDS011;15077;49.704;9.908;2023-03-04T05:41:11;12.80;;;7.82;;
27670;SDS011;15077;49.704;9.908;2023-03-04T05:43:37;14.93;;;8.63;;
27670;SDS011;15077;49.704;9.908;2023-03-04T05:46:06;12.98;;;6.90;;
27670;SDS011;15077;49.704;9.908;2023-03-04T05:48:36;11.63;;;7.00;;
27670;SDS011;15077;49.704;9.908;2023-03-04T05:51:01;16.02;;;8.57;;
27670;SDS011;15077;49.704;9.908;2023-03-04T05:53:27;12.38;;;7.57;;
27670;SDS011;15077;49.704;9.908;2023-03-04T05:55:53;13.18;;;7.00;;
27670;SDS011;15077;49.704;9.908;2023-03-04T05:58:19;11.45;;;6.90;;
27670;SDS011;15077;49.704;9.908;2023-03-04T06:00:46;12.90;;;7.60;;
27670;SDS011;15077;49.704;9.908;2023-03-04T06:03:19;14.07;;;7.50;;
27670;SDS011;15077;49.704;9.908;2023-03-04T06:05:46;12.85;;;7.13;;
27670;SDS011;15077;49.704;9.908;2023-03-04T06:08:12;14.32;;;7.32;;
27670;SDS011;15077;49.704;9.908;2023-03-04T06:10:39;11.00;;;6.60;;
27670;SDS011;15077;49.704;9.908;2023-03-04T06:13:06;13.73;;;8.05;;
27670;SDS011;15077;49.704;9.908;2023-03-04T06:15:33;11.95;;;7.00;;
27670;SDS011;15077;49.704;9.908;2023-03-04T06:17:58;15.55;;;9.15;;
27670;SDS011;15077;49.704;9.908;2023-03-04T06:20:24;17.27;;;9.45;;
27670;SDS011;15077;49.704;9.908;2023-03-04T06:22:50;16.60;;;8.55;;
27670;SDS011;15077;49.704;9.908;2023-03-04T06:25:15;16.63;;;8.55;;
27670;SDS011;15077;49.704;9.908;2023-03-04T06:27:41;13.18;;;7.25;;
27670;SDS011;15077;49.704;9.908;2023-03-04T06:30:07;16.23;;;8.65;;
27670;SDS011;15077;49.704;9.908;2023-03-04T06:32:34;14.57;;;8.82;;
27670;SDS011;15077;49.704;9.908;2023-03-04T06:35:00;13.98;;;8.32;;
27670;SDS011;15077;49.704;9.908;2023-03-04T06:37:25;14.77;;;8.90;;
27670;SDS011;15077;49.704;9.908;2023-03-04T06:39:51;16.67;;;8.68;;
27670;SDS011;15077;49.704;9.908;2023-03-04T06:42:17;13.38;;;7.07;;
27670;SDS011;15077;49.704;9.908;2023-03-04T06:44:43;10.75;;;6.95;;
27670;SDS011;15077;49.704;9.908;2023-03-04T06:47:09;12.32;;;7.30;;
27670;SDS011;15077;49.704;9.908;2023-03-04T06:49:35;18.48;;;9.70;;
27670;SDS011;15077;49.704;9.908;2023-03-04T06:52:00;13.27;;;8.23;;
27670;SDS011;15077;49.704;9.908;2023-03-04T06:54:26;9.13;;;5.97;;
27670;SDS011;15077;49.704;9.908;2023-03-04T06:56:52;10.10;;;6.70;;
27670;SDS011;15077;49.704;9.908;2023-03-04T06:59:18;12.52;;;7.07;;
27670;SDS011;15077;49.704;9.908;2023-03-04T07:01:43;12.25;;;7.28;;
27670;SDS011;15077;49.704;9.908;2023-03-04T07:04:09;14.18;;;7.85;;
27670;SDS011;15077;49.704;9.908;2023-03-04T07:06:38;16.02;;;9.05;;
27670;SDS011;15077;49.704;9.908;2023-03-04T07:09:04;16.63;;;10.18;;
27670;SDS011;15077;49.704;9.908;2023-03-04T07:11:29;18.00;;;10.25;;
27670;SDS011;15077;49.704;9.908;2023-03-04T07:13:56;18.30;;;8.80;;
27670;SDS011;15077;49.704;9.908;2023-03-04T07:16:22;15.52;;;9.13;;
27670;SDS011;15077;49.704;9.908;2023-03-04T07:18:48;12.52;;;8.05;;
27670;SDS011;15077;49.704;9.908;2023-03-04T07:21:14;15.95;;;9.38;;
27670;SDS011;15077;49.704;9.908;2023-03-04T07:23:41;15.57;;;9.82;;
27670;SDS011;15077;49.704;9.908;2023-03-04T07:26:08;15.10;;;9.45;;
27670;SDS011;15077;49.704;9.908;2023-03-04T07:28:34;17.60;;;11.13;;
27670;SDS011;15077;49.704;9.908;2023-03-04T07:31:10;14.98;;;8.82;;
27670;SDS011;15077;49.704;9.908;2023-03-04T07:33:39;13.57;;;8.05;;
27670;SDS011;15077;49.704;9.908;2023-03-04T07:36:05;15.43;;;9.05;;
27670;SDS011;15077;49.704;9.908;2023-03-04T07:38:31;14.25;;;8.45;;
27670;SDS011;15077;49.704;9.908;2023-03-04T07:40:57;13.55;;;9.15;;
27670;SDS011;15077;49.704;9.908;2023-03-04T07:43:23;19.08;;;10.68;;
27670;SDS011;15077;49.704;9.908;2023-03-04T07:45:49;14.77;;;8.82;;
27670;SDS011;15077;49.704;9.908;2023-03-04T07:48:15;17.20;;;10.57;;
27670;SDS011;15077;49.704;9.908;2023-03-04T07:50:41;14.82;;;9.40;;
27670;SDS011;15077;49.704;9.908;2023-03-04T07:53:13;18.40;;;11.07;;
27670;SDS011;15077;49.704;9.908;2023-03-04T07:55:38;16.02;;;10.27;;
27670;SDS011;15077;49.704;9.908;2023-03-04T07:58:04;13.65;;;8.98;;
27670;SDS011;15077;49.704;9.908;2023-03-04T08:00:30;13.55;;;9.00;;
27670;SDS011;15077;49.704;9.908;2023-03-04T08:02:55;15.05;;;9.38;;
27670;SDS011;15077;49.704;9.908;2023-03-04T08:05:21;15.90;;;8.90;;
27670;SDS011;15077;49.704;9.908;2023-03-04T08:07:47;14.27;;;10.05;;
27670;SDS011;15077;49.704;9.908;2023-03-04T08:10:13;16.30;;;9.65;;
27670;SDS011;15077;49.704;9.908;2023-03-04T08:12:38;13.70;;;9.10;;
27670;SDS011;15077;49.704;9.908;2023-03-04T08:15:04;13.60;;;8.95;;
27670;SDS011;15077;49.704;9.908;2023-03-04T08:17:31;13.77;;;9.32;;
27670;SDS011;15077;49.704;9.908;2023-03-04T08:19:56;20.58;;;10.52;;
27670;SDS011;15077;49.704;9.908;2023-03-04T08:22:22;16.65;;;10.48;;
27670;SDS011;15077;49.704;9.908;2023-03-04T08:24:48;15.32;;;10.15;;
27670;SDS011;15077;49.704;9.908;2023-03-04T08:27:14;20.10;;;12.05;;
27670;SDS011;15077;49.704;9.908;2023-03-04T08:29:39;17.83;;;11.52;;
27670;SDS011;15077;49.704;9.908;2023-03-04T08:32:05;16.65;;;10.35;;
27670;SDS011;15077;49.704;9.908;2023-03-04T08:34:31;13.88;;;9.00;;
27670;SDS011;15077;49.704;9.908;2023-03-04T08:36:56;14.30;;;8.35;;
27670;SDS011;15077;49.704;9.908;2023-03-04T08:39:22;19.50;;;11.63;;
27670;SDS011;15077;49.704;9.908;2023-03-04T08:41:48;17.48;;;11.52;;
27670;SDS011;15077;49.704;9.908;2023-03-04T08:44:19;17.02;;;10.45;;
27670;SDS011;15077;49.704;9.908;2023-03-04T08:46:45;14.43;;;10.18;;
27670;SDS011;15077;49.704;9.908;2023-03-04T08:49:11;13.85;;;9.32;;
27670;SDS011;15077;49.704;9.908;2023-03-04T08:51:38;13.55;;;8.93;;
27670;SDS011;15077;49.704;9.908;2023-03-04T08:54:04;11.30;;;8.07;;
27670;SDS011;15077;49.704;9.908;2023-03-04T08:56:30;16.17;;;9.40;;
27670;SDS011;15077;49.704;9.908;2023-03-04T08:58:57;14.32;;;10.02;;
27670;SDS011;15077;49.704;9.908;2023-03-04T09:01:23;13.68;;;9.05;;
27670;SDS011;15077;49.704;9.908;2023-03-04T09:03:48;14.25;;;9.88;;
27670;SDS011;15077;49.704;9.908;2023-03-04T09:06:16;12.02;;;8.23;;
27670;SDS011;15077;49.704;9.908;2023-03-04T09:08:42;12.68;;;8.48;;
27670;SDS011;15077;49.704;9.908;2023-03-04T09:11:09;11.27;;;7.68;;
27670;SDS011;15077;49.704;9.908;2023-03-04T09:13:36;13.75;;;8.65;;
27670;SDS011;15077;49.704;9.908;2023-03-04T09:16:02;19.05;;;10.50;;
27670;SDS011;15077;49.704;9.908;2023-03-04T09:18:36;16.33;;;12.05;;
27670;SDS011;15077;49.704;9.908;2023-03-04T09:21:03;12.10;;;9.15;;
27670;SDS011;15077;49.704;9.908;2023-03-04T09:23:30;16.00;;;10.25;;
27670;SDS011;15077;49.704;9.908;2023-03-04T09:25:56;19.02;;;13.27;;
27670;SDS011;15077;49.704;9.908;2023-03-04T09:28:22;16.13;;;10.48;;
27670;SDS011;15077;49.704;9.908;2023-03-04T09:30:47;14.13;;;9.52;;
27670;SDS011;15077;49.704;9.908;2023-03-04T09:33:13;15.85;;;10.10;;
27670;SDS011;15077;49.704;9.908;2023-03-04T09:35:40;16.17;;;10.00;;
27670;SDS011;15077;49.704;9.908;2023-03-04T09:38:06;15.57;;;10.88;;
27670;SDS011;15077;49.704;9.908;2023-03-04T09:40:36;14.02;;;10.77;;
27670;SDS011;15077;49.704;9.908;2023-03-04T09:43:28;15.48;;;10.70;;
27670;SDS011;15077;49.704;9.908;2023-03-04T09:45:56;16.10;;;12.27;;
27670;SDS011;15077;49.704;9.908;2023-03-04T09:48:28;13.82;;;9.38;;
27670;SDS011;15077;49.704;9.908;2023-03-04T09:56:39;15.77;;;10.75;;
27670;SDS011;15077;49.704;9.908;2023-03-04T10:01:52;15.38;;;10.38;;
27670;SDS011;15077;49.704;9.908;2023-03-04T10:04:29;11.98;;;7.57;;
27670;SDS011;15077;49.704;9.908;2023-03-04T10:07:22;14.73;;;8.98;;
27670;SDS011;15077;49.704;9.908;2023-03-04T10:13:10;16.30;;;9.32;;
27670;SDS011;15077;49.704;9.908;2023-03-04T10:15:44;14.38;;;9.73;;
27670;SDS011;15077;49.704;9.908;2023-03-04T10:24:12;14.73;;;9.43;;
27670;SDS011;15077;49.704;9.908;2023-03-04T10:26:43;19.20;;;10.77;;
27670;SDS011;15077;49.704;9.908;2023-03-04T10:29:18;12.17;;;7.57;;
27670;SDS011;15077;49.704;9.908;2023-03-04T10:31:48;18.33;;;9.73;;
27670;SDS011;15077;49.704;9.908;2023-03-04T10:34:15;18.48;;;8.68;;
27670;SDS011;15077;49.704;9.908;2023-03-04T10:39:29;15.27;;;8.75;;
27670;SDS011;15077;49.704;9.908;2023-03-04T10:42:03;12.18;;;9.43;;
27670;SDS011;15077;49.704;9.908;2023-03-04T10:44:40;11.07;;;7.28;;
27670;SDS011;15077;49.704;9.908;2023-03-04T10:47:22;9.63;;;7.35;;
27670;SDS011;15077;49.704;9.908;2023-03-04T10:49:56;12.63;;;7.97;;
27670;SDS011;15077;49.704;9.908;2023-03-04T10:52:30;11.85;;;7.03;;
27670;SDS011;15077;49.704;9.908;2023-03-04T10:54:59;10.63;;;5.78;;
27670;SDS011;15077;49.704;9.908;2023-03-04T10:57:37;13.45;;;7.93;;
27670;SDS011;15077;49.704;9.908;2023-03-04T11:05:52;14.88;;;8.32;;
27670;SDS011;15077;49.704;9.908;2023-03-04T11:08:44;11.55;;;7.40;;
27670;SDS011;15077;49.704;9.908;2023-03-04T11:11:20;13.10;;;7.85;;
27670;SDS011;15077;49.704;9.908;2023-03-04T11:13:54;12.65;;;7.28;;
27670;SDS011;15077;49.704;9.908;2023-03-04T11:16:28;13.05;;;8.15;;
27670;SDS011;15077;49.704;9.908;2023-03-04T11:19:02;8.57;;;6.68;;
27670;SDS011;15077;49.704;9.908;2023-03-04T11:21:38;9.05;;;6.22;;
27670;SDS011;15077;49.704;9.908;2023-03-04T11:24:08;11.10;;;7.00;;
27670;SDS011;15077;49.704;9.908;2023-03-04T11:26:50;11.45;;;6.00;;
27670;SDS011;15077;49.704;9.908;2023-03-04T11:32:12;11.13;;;5.72;;
27670;SDS011;15077;49.704;9.908;2023-03-04T11:34:46;14.23;;;6.43;;
27670;SDS011;15077;49.704;9.908;2023-03-04T11:40:00;11.13;;;7.13;;
27670;SDS011;15077;49.704;9.908;2023-03-04T11:42:53;10.18;;;6.60;;
27670;SDS011;15077;49.704;9.908;2023-03-04T11:48:54;12.30;;;8.13;;
27670;SDS011;15077;49.704;9.908;2023-03-04T11:55:24;16.75;;;8.65;;
27670;SDS011;15077;49.704;9.908;2023-03-04T11:58:17;12.93;;;7.78;;
27670;SDS011;15077;49.704;9.908;2023-03-04T12:01:07;13.75;;;7.82;;
27670;SDS011;15077;49.704;9.908;2023-03-04T12:15:48;12.73;;;7.20;;
27670;SDS011;15077;49.704;9.908;2023-03-04T12:21:07;11.13;;;6.75;;
27670;SDS011;15077;49.704;9.908;2023-03-04T12:47:31;12.00;;;6.10;;
27670;SDS011;15077;49.704;9.908;2023-03-04T12:50:22;11.75;;;6.05;;
27670;SDS011;15077;49.704;9.908;2023-03-04T12:56:04;9.82;;;5.57;;
27670;SDS011;15077;49.704;9.908;2023-03-04T12:58:31;8.40;;;5.95;;
27670;SDS011;15077;49.704;9.908;2023-03-04T13:01:21;18.10;;;8.40;;
27670;SDS011;15077;49.704;9.908;2023-03-04T13:09:31;10.48;;;6.97;;
27670;SDS011;15077;49.704;9.908;2023-03-04T13:12:14;13.95;;;6.50;;
27670;SDS011;15077;49.704;9.908;2023-03-04T13:17:49;12.88;;;6.60;;
27670;SDS011;15077;49.704;9.908;2023-03-04T13:25:47;13.48;;;7.00;;
27670;SDS011;15077;49.704;9.908;2023-03-04T13:28:40;10.02;;;5.75;;
27670;SDS011;15077;49.704;9.908;2023-03-04T13:41:19;9.93;;;5.72;;
27670;SDS011;15077;49.704;9.908;2023-03-04T13:43:56;15.98;;;6.88;;
27670;SDS011;15077;49.704;9.908;2023-03-04T13:56:44;13.50;;;7.30;;
27670;SDS011;15077;49.704;9.908;2023-03-04T14:02:09;10.48;;;5.65;;
27670;SDS011;15077;49.704;9.908;2023-03-04T14:04:54;10.60;;;6.00;;
27670;SDS011;15077;49.704;9.908;2023-03-04T14:07:24;10.13;;;6.50;;
27670;SDS011;15077;49.704;9.908;2023-03-04T14:12:39;14.68;;;6.70;;
27670;SDS011;15077;49.704;9.908;2023-03-04T14:17:38;14.10;;;7.10;;
27670;SDS011;15077;49.704;9.908;2023-03-04T14:23:00;11.70;;;6.78;;
27670;SDS011;15077;49.704;9.908;2023-03-04T14:25:30;10.98;;;6.53;;
27670;SDS011;15077;49.704;9.908;2023-03-04T14:30:37;12.18;;;6.30;;
27670;SDS011;15077;49.704;9.908;2023-03-04T14:33:05;11.40;;;5.75;;
27670;SDS011;15077;49.704;9.908;2023-03-04T14:35:37;11.77;;;6.85;;
27670;SDS011;15077;49.704;9.908;2023-03-04T14:38:24;15.27;;;9.38;;
27670;SDS011;15077;49.704;9.908;2023-03-04T14:41:15;10.27;;;6.40;;
27670;SDS011;15077;49.704;9.908;2023-03-04T14:46:42;11.00;;;6.70;;
27670;SDS011;15077;49.704;9.908;2023-03-04T14:49:14;9.98;;;5.72;;
27670;SDS011;15077;49.704;9.908;2023-03-04T14:51:51;12.65;;;5.95;;
27670;SDS011;15077;49.704;9.908;2023-03-04T14:56:57;8.38;;;4.93;;
27670;SDS011;15077;49.704;9.908;2023-03-04T14:59:32;9.10;;;5.07;;
27670;SDS011;15077;49.704;9.908;2023-03-04T15:04:59;11.50;;;7.63;;
27670;SDS011;15077;49.704;9.908;2023-03-04T15:07:51;13.25;;;6.75;;
27670;SDS011;15077;49.704;9.908;2023-03-04T15:10:23;10.75;;;6.60;;
27670;SDS011;15077;49.704;9.908;2023-03-04T15:12:57;14.85;;;8.20;;
27670;SDS011;15077;49.704;9.908;2023-03-04T15:15:33;16.80;;;8.45;;
27670;SDS011;15077;49.704;9.908;2023-03-04T15:18:21;15.65;;;7.57;;
27670;SDS011;15077;49.704;9.908;2023-03-04T15:21:01;12.38;;;6.00;;
27670;SDS011;15077;49.704;9.908;2023-03-04T15:23:31;13.80;;;7.05;;
27670;SDS011;15077;49.704;9.908;2023-03-04T15:25:59;21.30;;;8.07;;
27670;SDS011;15077;49.704;9.908;2023-03-04T15:28:32;15.55;;;7.90;;
27670;SDS011;15077;49.704;9.908;2023-03-04T15:31:01;14.50;;;7.80;;
27670;SDS011;15077;49.704;9.908;2023-03-04T15:33:28;14.65;;;8.07;;
27670;SDS011;15077;49.704;9.908;2023-03-04T15:35:55;11.05;;;6.57;;
27670;SDS011;15077;49.704;9.908;2023-03-04T15:38:24;16.55;;;7.38;;
27670;SDS011;15077;49.704;9.908;2023-03-04T15:40:52;11.90;;;6.53;;
27670;SDS011;15077;49.704;9.908;2023-03-04T15:43:21;13.57;;;6.82;;
27670;SDS011;15077;49.704;9.908;2023-03-04T15:45:49;15.13;;;8.13;;
27670;SDS011;15077;49.704;9.908;2023-03-04T15:48:17;12.95;;;6.88;;
27670;SDS011;15077;49.704;9.908;2023-03-04T15:50:44;17.45;;;9.68;;
27670;SDS011;15077;49.704;9.908;2023-03-04T15:53:31;24.48;;;11.02;;
27670;SDS011;15077;49.704;9.908;2023-03-04T15:56:02;16.17;;;9.05;;
27670;SDS011;15077;49.704;9.908;2023-03-04T15:58:31;33.28;;;15.52;;
27670;SDS011;15077;49.704;9.908;2023-03-04T16:00:57;23.30;;;11.43;;
27670;SDS011;15077;49.704;9.908;2023-03-04T16:03:23;23.25;;;10.77;;
27670;SDS011;15077;49.704;9.908;2023-03-04T16:05:49;22.00;;;9.70;;
27670;SDS011;15077;49.704;9.908;2023-03-04T16:08:18;18.98;;;11.38;;
27670;SDS011;15077;49.704;9.908;2023-03-04T16:10:48;17.38;;;9.98;;
27670;SDS011;15077;49.704;9.908;2023-03-04T16:13:17;16.63;;;8.40;;
27670;SDS011;15077;49.704;9.908;2023-03-04T16:15:45;17.58;;;9.05;;
27670;SDS011;15077;49.704;9.908;2023-03-04T16:18:12;16.02;;;8.00;;
27670;SDS011;15077;49.704;9.908;2023-03-04T16:20:40;17.83;;;9.00;;
27670;SDS011;15077;49.704;9.908;2023-03-04T16:23:12;20.15;;;10.50;;
27670;SDS011;15077;49.704;9.908;2023-03-04T16:25:43;17.73;;;10.18;;
27670;SDS011;15077;49.704;9.908;2023-03-04T16:28:11;15.27;;;9.20;;
27670;SDS011;15077;49.704;9.908;2023-03-04T16:30:38;18.02;;;10.48;;
27670;SDS011;15077;49.704;9.908;2023-03-04T16:33:05;18.48;;;9.02;;
27670;SDS011;15077;49.704;9.908;2023-03-04T16:35:31;17.92;;;10.48;;
27670;SDS011;15077;49.704;9.908;2023-03-04T16:38:00;15.85;;;8.88;;
27670;SDS011;15077;49.704;9.908;2023-03-04T16:40:26;19.40;;;11.27;;
27670;SDS011;15077;49.704;9.908;2023-03-04T16:42:55;16.85;;;8.48;;
27670;SDS011;15077;49.704;9.908;2023-03-04T16:45:22;15.02;;;7.78;;
27670;SDS011;15077;49.704;9.908;2023-03-04T16:47:51;13.82;;;8.27;;
27670;SDS011;15077;49.704;9.908;2023-03-04T16:50:22;18.20;;;8.88;;
27670;SDS011;15077;49.704;9.908;2023-03-04T16:52:53;17.73;;;8.18;;
27670;SDS011;15077;49.704;9.908;2023-03-04T16:55:20;14.20;;;7.55;;
27670;SDS011;15077;49.704;9.908;2023-03-04T16:57:49;13.48;;;7.53;;
27670;SDS011;15077;49.704;9.908;2023-03-04T17:00:17;15.10;;;6.90;;
27670;SDS011;15077;49.704;9.908;2023-03-04T17:02:56;15.52;;;8.20;;
27670;SDS011;15077;49.704;9.908;2023-03-04T17:05:26;10.23;;;6.07;;
27670;SDS011;15077;49.704;9.908;2023-03-04T17:07:57;22.95;;;9.18;;